Time;durP1;ratioP1;P1;durP2;ratioP2;P2;SDS_P1;SDS_P2;PMS_P1;PMS_P2;Temp;Humidity;BMP_temperature;BMP_pressure;BME280_temperature;BME280_humidity;BME280_pressure;Samples;Min_cycle;Max_cycle;Signal;HPM_P1;HPM_P2
2022/09/02 00:00:43;;;;;;;3.70;3.40;;;12.00;99.90;;;;;;5061454;28;20201;-83
2022/09/02 00:03:10;;;;;;;5.83;4.50;;;11.90;99.90;;;;;;5060918;28;20173;-83
2022/09/02 00:05:36;;;;;;;4.03;3.63;;;11.90;99.90;;;;;;5059523;28;20185;-83
2022/09/02 00:08:02;;;;;;;4.77;3.73;;;11.90;99.90;;;;;;5061255;28;20702;-84
2022/09/02 00:10:28;;;;;;;6.53;4.17;;;11.80;99.90;;;;;;5060585;28;20193;-83
2022/09/02 00:12:54;;;;;;;4.30;3.90;;;11.80;99.90;;;;;;5060943;28;20555;-83
2022/09/02 00:15:20;;;;;;;5.50;4.40;;;11.80;99.90;;;;;;5060425;28;20202;-83
2022/09/02 00:17:46;;;;;;;5.00;4.27;;;11.70;99.90;;;;;;5060532;28;20193;-83
2022/09/02 00:20:12;;;;;;;6.13;4.20;;;11.70;99.90;;;;;;5059583;28;20205;-84
2022/09/02 00:22:38;;;;;;;4.27;3.87;;;11.60;99.90;;;;;;5058585;28;20188;-82
2022/09/02 00:25:05;;;;;;;4.20;3.80;;;11.60;99.90;;;;;;5056529;28;20211;-81
2022/09/02 00:27:30;;;;;;;3.87;3.57;;;11.60;99.90;;;;;;5057200;28;20208;-83
2022/09/02 00:29:56;;;;;;;4.60;4.03;;;11.50;99.90;;;;;;5058357;28;20189;-83
2022/09/02 00:32:22;;;;;;;5.00;4.47;;;11.50;99.90;;;;;;5057128;28;20283;-82
2022/09/02 00:34:47;;;;;;;5.60;4.23;;;11.50;99.90;;;;;;5060009;28;20170;-83
2022/09/02 00:37:13;;;;;;;4.93;4.30;;;11.50;99.90;;;;;;5059038;28;20218;-83
2022/09/02 00:39:39;;;;;;;6.13;4.70;;;11.40;99.90;;;;;;5060995;28;20558;-83
2022/09/02 00:42:05;;;;;;;4.70;4.30;;;11.40;99.90;;;;;;5059965;28;20177;-84
2022/09/02 00:44:32;;;;;;;4.53;4.13;;;11.40;99.90;;;;;;5059911;28;20217;-84
2022/09/02 00:46:59;;;;;;;6.63;4.50;;;11.40;99.90;;;;;;5058832;28;20213;-83
2022/09/02 00:49:27;;;;;;;4.87;4.20;;;11.30;99.90;;;;;;5059402;28;20180;-84
2022/09/02 00:52:09;;;;;;;6.17;4.87;;;11.30;99.90;;;;;;5060938;28;20197;-83
2022/09/02 00:54:39;;;;;;;5.20;4.70;;;11.30;99.90;;;;;;5058923;28;20186;-83
2022/09/02 00:57:10;;;;;;;5.30;4.80;;;11.30;99.90;;;;;;5060618;28;20170;-83
2022/09/02 00:59:51;;;;;;;7.43;5.73;;;11.30;99.90;;;;;;5059259;28;20713;-83
2022/09/02 01:02:17;;;;;;;6.87;5.20;;;11.20;99.90;;;;;;5059498;28;20179;-84
2022/09/02 01:04:45;;;;;;;5.30;4.80;;;11.20;99.90;;;;;;5061079;28;20184;-83
2022/09/02 01:07:11;;;;;;;5.67;5.10;;;11.20;99.90;;;;;;5059777;28;20734;-83
2022/09/02 01:09:38;;;;;;;5.23;4.67;;;11.10;99.90;;;;;;5058799;28;20204;-83
2022/09/02 01:12:04;;;;;;;9.10;5.20;;;11.10;99.90;;;;;;5059276;28;20275;-83
2022/09/02 01:14:30;;;;;;;7.57;6.00;;;11.10;99.90;;;;;;5060019;28;20249;-83
2022/09/02 01:16:59;;;;;;;6.57;5.03;;;11.10;99.90;;;;;;5058985;28;20672;-84
2022/09/02 01:19:29;;;;;;;6.10;5.30;;;11.00;99.90;;;;;;5060028;28;20172;-83
2022/09/02 01:21:56;;;;;;;6.10;5.50;;;11.00;99.90;;;;;;5059997;28;20184;-82
2022/09/02 01:24:26;;;;;;;5.53;5.03;;;11.00;99.90;;;;;;5060088;28;20174;-83
2022/09/02 01:26:54;;;;;;;5.47;5.00;;;10.90;99.90;;;;;;5058612;28;20536;-84
2022/09/02 01:29:20;;;;;;;8.27;5.00;;;10.90;99.90;;;;;;5058258;28;20232;-82
2022/09/02 01:31:46;;;;;;;5.27;4.73;;;10.90;99.90;;;;;;5060052;28;20180;-84
2022/09/02 01:34:11;;;;;;;6.40;5.67;;;10.80;99.90;;;;;;5060400;28;20174;-83
2022/09/02 01:36:39;;;;;;;6.23;5.00;;;10.80;99.90;;;;;;5060105;28;20183;-83
2022/09/02 01:39:07;;;;;;;6.87;5.60;;;10.90;99.90;;;;;;5059841;28;20676;-83
2022/09/02 01:41:32;;;;;;;7.30;5.60;;;10.90;99.90;;;;;;5058451;28;20811;-84
2022/09/02 01:43:58;;;;;;;12.83;4.93;;;10.80;99.90;;;;;;5058925;28;20215;-83
2022/09/02 01:46:24;;;;;;;6.23;5.73;;;10.80;99.90;;;;;;5058893;28;20266;-84
2022/09/02 01:48:50;;;;;;;6.13;5.00;;;10.70;99.90;;;;;;5059148;28;20635;-83
2022/09/02 01:51:18;;;;;;;6.80;5.13;;;10.70;99.90;;;;;;5058275;28;20239;-83
2022/09/02 01:53:45;;;;;;;5.60;5.20;;;10.70;99.90;;;;;;5057199;28;20186;-83
2022/09/02 01:56:11;;;;;;;5.83;4.90;;;10.70;99.90;;;;;;5060053;28;20178;-84
2022/09/02 01:58:36;;;;;;;5.50;4.90;;;10.60;99.90;;;;;;5060145;28;20245;-84
2022/09/02 02:01:03;;;;;;;5.87;4.97;;;10.60;99.90;;;;;;5059508;28;20724;-84
2022/09/02 02:03:29;;;;;;;4.93;4.53;;;10.60;99.90;;;;;;5058600;28;20620;-84
2022/09/02 02:05:55;;;;;;;6.33;5.30;;;10.60;99.90;;;;;;5058385;28;20579;-83
2022/09/02 02:08:22;;;;;;;4.73;4.33;;;10.50;99.90;;;;;;5057288;28;20290;-84
2022/09/02 02:10:48;;;;;;;5.90;5.17;;;10.50;99.90;;;;;;5056307;28;20217;-83
2022/09/02 02:13:14;;;;;;;5.17;4.63;;;10.50;99.90;;;;;;5057980;28;20175;-83
2022/09/02 02:15:42;;;;;;;5.23;4.73;;;10.50;99.90;;;;;;5065019;28;20204;-84
2022/09/02 02:18:08;;;;;;;6.40;5.50;;;10.50;99.90;;;;;;5058784;28;20205;-84
2022/09/02 02:20:35;;;;;;;6.50;5.00;;;10.50;99.90;;;;;;5060229;28;20699;-83
2022/09/02 02:23:02;;;;;;;5.10;4.60;;;10.40;99.90;;;;;;5065489;28;20181;-80
2022/09/02 02:25:28;;;;;;;5.00;4.37;;;10.40;99.90;;;;;;5070439;28;20180;-79
2022/09/02 02:27:54;;;;;;;7.33;4.53;;;10.40;99.90;;;;;;5071673;28;20221;-80
2022/09/02 02:30:20;;;;;;;5.77;4.50;;;10.40;99.90;;;;;;5071010;28;20229;-80
2022/09/02 02:32:46;;;;;;;4.77;4.37;;;10.30;99.90;;;;;;5071709;28;20179;-79
2022/09/02 02:35:14;;;;;;;5.97;4.63;;;10.30;99.90;;;;;;5073050;28;20233;-81
2022/09/02 02:37:40;;;;;;;9.23;4.53;;;10.30;99.90;;;;;;5073136;28;20185;-80
2022/09/02 02:40:06;;;;;;;11.70;4.83;;;10.20;99.90;;;;;;5058281;28;20210;-79
2022/09/02 02:42:33;;;;;;;5.13;4.63;;;10.20;99.90;;;;;;5057210;28;20183;-83
2022/09/02 02:44:59;;;;;;;5.77;4.40;;;10.20;99.90;;;;;;5060030;28;20637;-83
2022/09/02 02:47:26;;;;;;;5.83;4.83;;;10.20;99.90;;;;;;5056522;28;20283;-82
2022/09/02 02:49:52;;;;;;;9.37;4.90;;;10.10;99.90;;;;;;5058704;28;20199;-83
2022/09/02 02:52:18;;;;;;;7.07;5.07;;;10.10;99.90;;;;;;5058933;28;20174;-83
2022/09/02 02:54:44;;;;;;;5.27;4.77;;;10.10;99.90;;;;;;5058754;28;20193;-84
2022/09/02 02:57:12;;;;;;;5.90;5.27;;;10.10;99.90;;;;;;5058682;28;20178;-83
2022/09/02 02:59:38;;;;;;;8.37;6.33;;;10.00;99.90;;;;;;5059106;28;20281;-82
2022/09/02 03:02:05;;;;;;;6.83;5.70;;;10.00;99.90;;;;;;5056178;28;20196;-82
2022/09/02 03:04:31;;;;;;;6.33;5.47;;;10.10;99.90;;;;;;5061702;28;20637;-83
2022/09/02 03:06:56;;;;;;;7.13;5.47;;;10.00;99.90;;;;;;5062814;28;20208;-83
2022/09/02 03:09:22;;;;;;;6.83;6.23;;;10.00;99.90;;;;;;5063390;28;20644;-82
2022/09/02 03:11:48;;;;;;;9.43;6.20;;;10.00;99.90;;;;;;5064225;28;20204;-83
2022/09/02 03:14:14;;;;;;;8.77;6.10;;;10.00;99.90;;;;;;5062157;28;20217;-83
2022/09/02 03:16:40;;;;;;;7.90;5.73;;;10.00;99.90;;;;;;5064408;28;20181;-83
2022/09/02 03:19:06;;;;;;;6.47;5.97;;;9.90;99.90;;;;;;5063956;28;20181;-84
2022/09/02 03:21:32;;;;;;;7.43;5.73;;;9.90;99.90;;;;;;5063390;28;20609;-84
2022/09/02 03:23:58;;;;;;;6.40;5.80;;;9.90;99.90;;;;;;5064878;28;20173;-84
2022/09/02 03:26:25;;;;;;;6.43;5.83;;;9.90;99.90;;;;;;5066533;28;20174;-84
2022/09/02 03:28:54;;;;;;;9.20;6.07;;;9.80;99.90;;;;;;5066370;28;20199;-83
2022/09/02 03:31:22;;;;;;;6.93;6.00;;;9.90;99.90;;;;;;5066350;28;20195;-84
2022/09/02 03:33:49;;;;;;;6.83;6.13;;;9.80;99.90;;;;;;5067761;28;20201;-81
2022/09/02 03:36:24;;;;;;;7.23;6.10;;;9.80;99.90;;;;;;5061856;28;20179;-83
2022/09/02 03:38:49;;;;;;;7.13;6.27;;;9.80;99.90;;;;;;5060809;28;20181;-82
2022/09/02 03:41:15;;;;;;;7.10;6.30;;;9.80;99.90;;;;;;5060321;28;20389;-83
2022/09/02 03:43:41;;;;;;;7.20;6.50;;;9.80;99.90;;;;;;5058728;28;20180;-83
2022/09/02 03:46:08;;;;;;;6.53;5.93;;;9.70;99.90;;;;;;5059492;28;20664;-82
2022/09/02 03:48:34;;;;;;;7.50;6.70;;;9.70;99.90;;;;;;5061286;28;20279;-83
2022/09/02 03:51:01;;;;;;;9.23;7.17;;;9.70;99.90;;;;;;5061717;28;20636;-83
2022/09/02 03:53:27;;;;;;;8.83;7.63;;;9.60;99.90;;;;;;5061465;28;20179;-81
2022/09/02 03:55:53;;;;;;;9.40;8.50;;;9.70;99.90;;;;;;5062352;28;20175;-82
2022/09/02 03:58:21;;;;;;;11.97;8.47;;;9.70;99.90;;;;;;5060829;28;20269;-83
2022/09/02 04:00:53;;;;;;;9.10;8.20;;;9.70;99.90;;;;;;5062448;28;20195;-84
2022/09/02 04:03:19;;;;;;;8.47;7.63;;;9.70;99.90;;;;;;5062518;28;20174;-82
2022/09/02 04:05:51;;;;;;;8.90;7.90;;;9.60;99.90;;;;;;5061342;28;20196;-82
2022/09/02 04:08:18;;;;;;;7.93;7.13;;;9.60;99.90;;;;;;5060226;28;20194;-83
2022/09/02 04:10:43;;;;;;;9.03;8.07;;;9.60;99.90;;;;;;5060948;28;20263;-82
2022/09/02 04:13:10;;;;;;;11.50;8.50;;;9.60;99.90;;;;;;5060608;28;20189;-82
2022/09/02 04:15:43;;;;;;;9.00;8.20;;;9.60;99.90;;;;;;5060916;28;20172;-83
2022/09/02 04:21:35;;;;;;;8.40;7.60;;;9.60;99.90;;;;;;5067199;28;20194;-82
2022/09/02 05:25:23;;;;;;;12.37;10.40;;;;;;;;;;5118241;27;20616;-83
2022/09/02 05:27:49;;;;;;;14.97;11.73;;;;;;;;;;5132526;28;20230;-83
2022/09/02 05:30:15;;;;;;;19.13;12.87;;;;;;;;;;5117479;28;20188;-83
2022/09/02 05:44:54;;;;;;;16.70;12.77;;;;;;;;;;5138837;27;20269;-84
2022/09/02 05:47:20;;;;;;;18.27;16.27;;;10.00;99.90;;;;;;5136264;28;20173;-83
2022/09/02 05:49:46;;;;;;;19.63;16.40;;;;;;;;;;5136960;28;20694;-83
2022/09/02 05:52:13;;;;;;;23.07;18.53;;;10.20;99.90;;;;;;5136256;28;20175;-83
2022/09/02 05:54:39;;;;;;;21.80;18.70;;;10.30;99.90;;;;;;5137063;28;20175;-82
2022/09/02 05:57:11;;;;;;;19.20;17.10;;;10.30;99.90;;;;;;5137056;27;20178;-82
2022/09/02 06:05:23;;;;;;;17.03;15.23;;;10.50;99.90;;;;;;5137386;27;20275;-82
2022/09/02 06:07:48;;;;;;;17.43;14.93;;;10.60;99.90;;;;;;5118527;28;20647;-82
2022/09/02 06:10:14;;;;;;;16.10;13.97;;;10.80;99.90;;;;;;5123084;28;20202;-82
2022/09/02 06:12:41;;;;;;;14.33;12.20;;;10.80;99.90;;;;;;5136395;27;20624;-82
2022/09/02 06:15:07;;;;;;;14.63;12.33;;;10.80;99.90;;;;;;5136169;27;20167;-83
2022/09/02 06:17:32;;;;;;;12.30;11.10;;;11.00;99.90;;;;;;5134237;28;20267;-82
2022/09/02 06:19:58;;;;;;;11.73;10.50;;;11.10;99.90;;;;;;5134835;28;20202;-83
2022/09/02 06:22:24;;;;;;;16.20;11.00;;;11.20;99.90;;;;;;5134603;28;20189;-84
2022/09/02 06:24:51;;;;;;;10.03;8.83;;;11.30;99.90;;;;;;5134926;28;20612;-84
2022/09/02 06:27:17;;;;;;;10.17;9.03;;;11.30;99.90;;;;;;5136693;28;20670;-82
2022/09/02 06:29:42;;;;;;;10.00;8.37;;;11.40;99.90;;;;;;5142152;28;20281;-82
2022/09/02 06:32:08;;;;;;;10.00;9.10;;;11.40;99.90;;;;;;5136159;27;20192;-82
2022/09/02 06:38:30;;;;;;;11.00;9.90;;;11.60;99.90;;;;;;5076468;28;20543;-81
2022/09/02 06:40:56;;;;;;;11.43;8.90;;;11.60;99.90;;;;;;5076834;28;20197;-82
2022/09/02 06:43:22;;;;;;;9.73;8.73;;;11.60;99.90;;;;;;5076616;28;20268;-82
2022/09/02 06:45:48;;;;;;;10.13;8.97;;;11.60;99.90;;;;;;5078414;28;20183;-83
2022/09/02 06:48:13;;;;;;;9.90;8.90;;;11.60;99.90;;;;;;5080498;28;20260;-81
2022/09/02 06:50:42;;;;;;;8.97;8.07;;;11.60;99.90;;;;;;5079675;28;20226;-84
2022/09/02 06:53:09;;;;;;;10.17;9.07;;;11.60;99.90;;;;;;5072642;28;21083;-82
2022/09/02 06:55:40;;;;;;;8.93;8.03;;;11.60;99.90;;;;;;5071156;28;20207;-82
2022/09/02 06:58:06;;;;;;;9.50;8.03;;;11.70;99.90;;;;;;5072389;28;20196;-80
2022/09/02 07:07:19;;;;;;;9.10;8.20;;;11.90;99.90;;;;;;5133759;28;20252;-82
2022/09/02 07:09:45;;;;;;;9.77;8.57;;;12.00;99.90;;;;;;5116294;28;20651;-81
2022/09/02 07:12:11;;;;;;;8.80;7.90;;;12.10;99.90;;;;;;5134370;27;20632;-82
2022/09/02 07:14:40;;;;;;;10.10;8.07;;;12.20;99.90;;;;;;5133770;27;20171;-83
2022/09/02 07:17:06;;;;;;;8.63;7.80;;;12.30;99.90;;;;;;5133410;27;20254;-82
2022/09/02 07:19:32;;;;;;;11.33;8.40;;;12.30;99.90;;;;;;5133285;27;20224;-81
2022/09/02 07:21:58;;;;;;;8.30;7.50;;;12.30;99.90;;;;;;5131879;28;20170;-81
2022/09/02 07:24:24;;;;;;;11.27;7.07;;;12.40;99.90;;;;;;5133541;27;20190;-82
2022/09/02 07:26:50;;;;;;;7.90;7.10;;;12.40;99.90;;;;;;5131710;28;20171;-81
2022/09/02 07:29:16;;;;;;;8.50;7.63;;;12.40;99.90;;;;;;5131073;28;20203;-82
2022/09/02 07:31:45;;;;;;;8.67;7.63;;;12.50;99.90;;;;;;5132302;28;20652;-82
2022/09/02 07:34:13;;;;;;;8.47;7.63;;;12.50;99.90;;;;;;5132648;28;20194;-83
2022/09/02 07:36:40;;;;;;;8.00;7.20;;;12.40;99.90;;;;;;5133815;28;20187;-84
2022/09/02 07:39:09;;;;;;;9.83;7.63;;;12.30;99.90;;;;;;5132298;28;20640;-83
2022/09/02 07:41:35;;;;;;;7.93;7.13;;;12.20;99.90;;;;;;5133587;27;20195;-83
2022/09/02 07:44:03;;;;;;;8.80;7.40;;;12.20;99.90;;;;;;5133555;27;20274;-82
2022/09/02 07:46:30;;;;;;;8.27;7.40;;;12.40;99.90;;;;;;5132026;28;20254;-83
2022/09/02 07:49:00;;;;;;;8.37;7.23;;;12.50;99.90;;;;;;5131684;28;20262;-83
2022/09/02 07:51:27;;;;;;;8.60;7.80;;;12.60;99.90;;;;;;5131908;28;20197;-84
2022/09/02 07:53:53;;;;;;;8.13;7.33;;;12.80;99.90;;;;;;5131849;28;20204;-82
2022/09/02 07:56:19;;;;;;;16.07;7.90;;;12.90;99.90;;;;;;5133697;27;20641;-82
2022/09/02 07:58:45;;;;;;;8.07;7.27;;;13.00;99.90;;;;;;5132387;28;20269;-83
2022/09/02 08:01:12;;;;;;;8.40;7.03;;;13.10;99.90;;;;;;5131666;28;20562;-83
2022/09/02 08:03:40;;;;;;;7.73;6.70;;;13.20;99.90;;;;;;5133248;27;20199;-83
2022/09/02 08:06:07;;;;;;;8.50;7.70;;;13.20;99.90;;;;;;5133417;27;20243;-82
2022/09/02 08:08:33;;;;;;;8.53;7.60;;;13.30;99.90;;;;;;5131126;28;20175;-84
2022/09/02 08:10:59;;;;;;;7.30;6.60;;;13.40;99.90;;;;;;5133163;27;20545;-83
2022/09/02 08:13:25;;;;;;;7.70;6.90;;;13.50;99.90;;;;;;5132718;27;20648;-83
2022/09/02 08:15:51;;;;;;;8.47;6.77;;;13.50;99.90;;;;;;5119657;27;20247;-83
2022/09/02 08:18:18;;;;;;;7.37;6.17;;;13.50;99.90;;;;;;5118664;28;20645;-82
2022/09/02 08:20:43;;;;;;;7.77;6.87;;;13.60;99.90;;;;;;5119012;28;20196;-83
2022/09/02 08:23:10;;;;;;;7.47;6.77;;;13.70;99.90;;;;;;5118295;28;20236;-83
2022/09/02 08:25:36;;;;;;;7.00;6.30;;;13.70;99.90;;;;;;5118513;28;20263;-84
2022/09/02 08:28:02;;;;;;;7.37;6.67;;;13.80;99.90;;;;;;5119979;28;20176;-84
2022/09/02 08:30:28;;;;;;;15.20;6.60;;;13.90;99.90;;;;;;5117951;28;20206;-83
2022/09/02 08:32:55;;;;;;;9.27;7.63;;;14.10;99.90;;;;;;5117388;28;20179;-85
2022/09/02 08:35:22;;;;;;;8.07;6.50;;;14.50;99.90;;;;;;5117090;28;20560;-84
2022/09/02 08:37:47;;;;;;;6.77;6.07;;;14.70;99.90;;;;;;5118542;28;20206;-84
2022/09/02 08:40:21;;;;;;;9.57;6.00;;;14.90;99.90;;;;;;5117128;28;20661;-84
2022/09/02 08:42:52;;;;;;;6.10;5.30;;;15.20;99.90;;;;;;5118101;28;20218;-82
2022/09/02 08:45:22;;;;;;;5.97;5.47;;;15.60;99.90;;;;;;5116335;28;20599;-82
2022/09/02 08:48:09;;;;;;;5.43;4.93;;;16.60;99.90;;;;;;5115999;28;20190;-82
2022/09/02 08:50:39;;;;;;;5.80;4.77;;;17.40;99.90;;;;;;5116300;28;20203;-83
2022/09/02 08:53:21;;;;;;;5.07;4.57;;;17.60;99.90;;;;;;5118932;28;20170;-84
2022/09/02 08:55:54;;;;;;;5.57;4.80;;;18.10;99.90;;;;;;5117170;28;20691;-84
2022/09/02 08:58:23;;;;;;;5.07;4.50;;;18.30;99.90;;;;;;5116515;28;20172;-84
2022/09/02 09:01:03;;;;;;;4.77;4.27;;;18.50;99.90;;;;;;5118889;28;20192;-84
2022/09/02 09:04:06;;;;;;;4.77;4.37;;;18.70;99.90;;;;;;5116625;28;20215;-83
2022/09/02 09:06:41;;;;;;;4.33;3.93;;;19.00;99.90;;;;;;5117049;28;20169;-82
2022/09/02 09:09:22;;;;;;;5.93;4.10;;;19.10;99.90;;;;;;5116541;28;20166;-82
2022/09/02 09:12:02;;;;;;;4.63;3.90;;;19.20;99.90;;;;;;5117554;28;20237;-84
2022/09/02 09:14:31;;;;;;;5.33;3.97;;;19.40;99.90;;;;;;5116868;28;20170;-83
2022/09/02 09:17:15;;;;;;;4.87;4.47;;;19.60;99.90;;;;;;5118245;28;20639;-83
2022/09/02 09:19:50;;;;;;;4.57;4.00;;;19.50;99.90;;;;;;5116379;28;20203;-83
2022/09/02 09:22:27;;;;;;;4.43;4.03;;;19.10;99.90;;;;;;5117837;28;20167;-83
2022/09/02 09:24:55;;;;;;;4.50;4.10;;;19.10;99.90;;;;;;5116560;28;20209;-83
2022/09/02 09:27:22;;;;;;;4.10;3.80;;;19.60;99.90;;;;;;5116152;28;20206;-83
2022/09/02 09:29:49;;;;;;;6.50;3.50;;;20.00;99.90;;;;;;5117763;27;20187;-84
2022/09/02 09:32:32;;;;;;;3.67;3.37;;;20.30;99.90;;;;;;5116248;28;20171;-83
2022/09/02 09:35:06;;;;;;;3.77;3.47;;;20.60;99.90;;;;;;5117637;27;20156;-81
2022/09/02 09:37:35;;;;;;;4.43;3.40;;;20.80;99.90;;;;;;5117810;28;20196;-83
2022/09/02 09:40:22;;;;;;;3.77;3.47;;;21.00;99.90;;;;;;5116074;28;20191;-82
2022/09/02 09:43:12;;;;;;;4.07;2.90;;;21.30;99.90;;;;;;5118118;28;20548;-83
2022/09/02 09:45:44;;;;;;;3.20;2.90;;;21.60;99.90;;;;;;5109157;28;20179;-83
2022/09/02 09:48:21;;;;;;;3.20;2.90;;;21.70;99.90;;;;;;5117966;28;20242;-84
2022/09/02 09:50:56;;;;;;;4.10;3.00;;;22.00;99.90;;;;;;5116108;28;20793;-81
2022/09/02 09:53:25;;;;;;;5.97;3.10;;;22.20;99.90;;;;;;5116742;28;20190;-80
2022/09/02 09:56:25;;;;;;;2.97;2.67;;;22.40;99.90;;;;;;5116840;28;20176;-81
2022/09/02 09:58:51;;;;;;;4.33;2.67;;;22.40;99.90;;;;;;5117813;28;20206;-79
2022/09/02 10:01:33;;;;;;;2.87;2.40;;;22.50;99.90;;;;;;5117563;28;20193;-81
2022/09/02 10:04:08;;;;;;;2.77;2.53;;;22.50;99.90;;;;;;5122331;28;20695;-84
2022/09/02 10:06:40;;;;;;;6.27;2.50;;;22.70;99.90;;;;;;5121435;28;20175;-83
2022/09/02 10:09:21;;;;;;;3.33;2.83;;;22.80;99.90;;;;;;5122351;28;20217;-84
2022/09/02 10:11:56;;;;;;;2.70;2.50;;;23.10;99.90;;;;;;5121518;28;20270;-82
2022/09/02 10:14:23;;;;;;;2.80;2.60;;;23.30;99.90;;;;;;5123719;28;20233;-84
2022/09/02 10:17:17;;;;;;;2.60;2.30;;;23.40;99.90;;;;;;5119647;28;20698;-83
2022/09/02 10:20:04;;;;;;;2.77;2.57;;;23.60;99.90;;;;;;5119282;28;20204;-83
2022/09/02 10:22:48;;;;;;;3.20;2.70;;;23.60;99.90;;;;;;5120560;28;20200;-82
2022/09/02 10:25:24;;;;;;;3.40;2.30;;;23.80;99.90;;;;;;5121123;28;20263;-84
2022/09/02 10:28:18;;;;;;;2.80;2.43;;;24.00;99.90;;;;;;5120400;28;20195;-83
2022/09/02 10:31:29;;;;;;;4.83;2.37;;;24.20;99.90;;;;;;5120171;28;20276;-81
2022/09/02 10:34:30;;;;;;;3.13;2.10;;;24.30;99.90;;;;;;5062285;28;20200;-83
2022/09/02 10:37:22;;;;;;;3.60;2.50;;;24.60;99.90;;;;;;5078748;28;20242;-80
2022/09/02 10:40:07;;;;;;;3.40;2.50;;;25.00;99.90;;;;;;5113976;28;20311;-81
2022/09/02 10:43:04;;;;;;;2.63;2.30;;;24.90;99.90;;;;;;5120773;28;20650;-83
2022/09/02 10:45:45;;;;;;;2.60;1.87;;;25.00;99.90;;;;;;5119872;28;20160;-81
2022/09/02 10:48:42;;;;;;;2.40;2.20;;;25.20;99.90;;;;;;5120429;28;20171;-82
2022/09/02 10:51:32;;;;;;;3.50;2.33;;;25.20;99.90;;;;;;5121996;28;20193;-84
2022/09/02 10:54:09;;;;;;;3.53;2.30;;;25.30;99.90;;;;;;5122507;28;20200;-84
2022/09/02 10:56:49;;;;;;;2.73;2.20;;;25.60;99.90;;;;;;5122232;28;20175;-83
2022/09/02 10:59:40;;;;;;;2.87;2.57;;;25.90;99.90;;;;;;5116984;28;20183;-84
2022/09/02 11:02:22;;;;;;;2.60;2.40;;;25.70;99.90;;;;;;5118091;28;20192;-85
2022/09/02 11:04:58;;;;;;;2.73;2.30;;;25.80;99.90;;;;;;5121682;28;20551;-84
2022/09/02 11:07:47;;;;;;;3.13;2.40;;;25.80;99.90;;;;;;5119793;28;20173;-83
2022/09/02 11:10:26;;;;;;;2.30;2.10;;;26.00;99.90;;;;;;5119945;28;20189;-85
2022/09/02 11:13:04;;;;;;;2.50;2.17;;;25.80;99.90;;;;;;5121099;28;20276;-84
2022/09/02 11:15:54;;;;;;;2.17;1.87;;;26.00;99.90;;;;;;5121661;28;20169;-84
2022/09/02 11:18:44;;;;;;;3.93;2.00;;;26.30;99.90;;;;;;5122877;28;20194;-86
2022/09/02 11:21:41;;;;;;;3.50;1.97;;;26.80;99.90;;;;;;5123774;28;20262;-82
2022/09/02 11:24:29;;;;;;;2.67;2.10;;;26.90;99.90;;;;;;5121778;28;20242;-84
2022/09/02 11:27:14;;;;;;;2.43;1.87;;;27.00;99.90;;;;;;5122438;28;20166;-83
2022/09/02 11:30:01;;;;;;;3.53;2.00;;;27.20;99.90;;;;;;5120100;28;20189;-84
2022/09/02 11:32:54;;;;;;;3.07;2.17;;;27.20;99.90;;;;;;5120593;28;20163;-86
2022/09/02 11:35:26;;;;;;;2.20;2.00;;;27.30;99.90;;;;;;5119616;28;20551;-82
2022/09/02 11:38:18;;;;;;;2.50;2.03;;;27.30;99.90;;;;;;5116582;28;20168;-84
2022/09/02 11:40:47;;;;;;;2.50;2.30;;;27.30;99.90;;;;;;5101657;28;20269;-84
2022/09/02 11:43:51;;;;;;;2.33;2.10;;;27.40;99.90;;;;;;5117654;28;20173;-84
2022/09/02 11:46:29;;;;;;;5.03;2.27;;;27.60;99.90;;;;;;5116182;28;20196;-82
2022/09/02 11:49:28;;;;;;;2.30;2.07;;;27.70;99.90;;;;;;5116019;28;20259;-81
2022/09/02 11:52:06;;;;;;;2.60;1.90;;;28.00;99.90;;;;;;5120016;28;20326;-83
2022/09/02 11:54:38;;;;;;;1.80;1.70;;;28.00;99.90;;;;;;5119103;28;20234;-83
2022/09/02 11:57:05;;;;;;;4.60;2.13;;;27.90;99.90;;;;;;5121947;28;20171;-84
2022/09/02 11:59:49;;;;;;;3.57;2.00;;;27.70;99.90;;;;;;5120962;28;20171;-82
2022/09/02 12:02:39;;;;;;;2.10;1.80;;;27.90;99.90;;;;;;5119757;28;20175;-83
2022/09/02 12:05:28;;;;;;;2.13;1.93;;;28.00;99.90;;;;;;5119355;28;20167;-85
2022/09/02 12:07:57;;;;;;;1.70;1.60;;;27.90;99.90;;;;;;5119024;28;20175;-86
2022/09/02 12:10:38;;;;;;;3.63;1.93;;;27.80;99.90;;;;;;5120827;28;20262;-85
2022/09/02 12:13:07;;;;;;;2.03;1.87;;;28.10;99.90;;;;;;5119674;28;20199;-87
2022/09/02 12:15:35;;;;;;;1.97;1.87;;;28.20;99.90;;;;;;5122013;28;20243;-82
2022/09/02 12:18:16;;;;;;;2.70;2.00;;;28.30;99.90;;;;;;5120975;28;20203;-84
2022/09/02 12:20:42;;;;;;;2.50;2.07;;;28.20;99.90;;;;;;5120387;28;20250;-83
2022/09/02 12:23:11;;;;;;;2.10;1.90;;;28.30;99.90;;;;;;5120772;28;20191;-85
2022/09/02 12:25:48;;;;;;;4.70;2.27;;;28.30;99.90;;;;;;5120720;28;20174;-86
2022/09/02 12:28:25;;;;;;;3.03;2.20;;;28.30;99.90;;;;;;5120768;28;20702;-84
2022/09/02 12:30:54;;;;;;;2.27;1.97;;;28.30;99.90;;;;;;5119776;28;20200;-84
2022/09/02 12:33:35;;;;;;;4.03;2.00;;;28.30;99.90;;;;;;5121040;28;20203;-78
2022/09/02 12:36:01;;;;;;;1.73;1.63;;;28.30;99.90;;;;;;5122751;27;20169;-78
2022/09/02 12:38:40;;;;;;;3.37;2.20;;;28.30;99.90;;;;;;5120075;28;20255;-79
2022/09/02 12:41:08;;;;;;;1.90;1.80;;;28.30;99.90;;;;;;5119313;28;20194;-81
2022/09/02 12:44:11;;;;;;;3.47;1.87;;;28.40;99.90;;;;;;5119894;28;20196;-81
2022/09/02 12:46:50;;;;;;;2.03;1.70;;;28.00;99.90;;;;;;5119388;28;20228;-81
2022/09/02 12:49:34;;;;;;;2.33;2.03;;;28.10;99.90;;;;;;5120184;28;20176;-84
2022/09/02 12:52:05;;;;;;;2.20;1.90;;;28.20;99.90;;;;;;5118043;28;20188;-86
2022/09/02 12:54:39;;;;;;;3.17;2.30;;;28.30;99.80;;;;;;5120064;28;20187;-83
2022/09/02 12:57:06;;;;;;;1.97;1.87;;;28.30;99.90;;;;;;5118887;28;20167;-83
2022/09/02 12:59:35;;;;;;;2.03;1.93;;;28.10;99.90;;;;;;5119598;28;20167;-82
2022/09/02 13:02:24;;;;;;;2.80;2.60;;;28.10;99.90;;;;;;5118388;28;20648;-82
2022/09/02 13:04:59;;;;;;;2.43;2.17;;;28.20;99.90;;;;;;5119387;28;20209;-82
2022/09/02 13:07:31;;;;;;;1.87;1.70;;;27.90;99.90;;;;;;5119189;28;20528;-82
2022/09/02 13:09:59;;;;;;;2.20;2.10;;;28.00;99.90;;;;;;5119500;28;20196;-81
2022/09/02 13:12:49;;;;;;;4.23;2.00;;;28.00;99.90;;;;;;5119279;28;20293;-81
2022/09/02 13:15:48;;;;;;;3.13;2.10;;;28.10;99.90;;;;;;5119033;28;20177;-83
2022/09/02 13:18:54;;;;;;;3.30;2.03;;;28.40;99.90;;;;;;5118762;28;20156;-81
2022/09/02 13:21:41;;;;;;;2.03;1.73;;;28.70;99.90;;;;;;5118129;28;20269;-81
2022/09/02 13:24:35;;;;;;;3.47;1.80;;;28.90;99.90;;;;;;5119284;28;20243;-81
2022/09/02 13:27:19;;;;;;;2.10;1.90;;;28.70;97.60;;;;;;5117691;28;20182;-81
2022/09/02 13:30:11;;;;;;;2.63;1.80;;;28.70;99.90;;;;;;5118749;28;20236;-83
2022/09/02 13:32:37;;;;;;;3.77;1.70;;;28.70;97.40;;;;;;5119239;28;20159;-82
2022/09/02 13:35:25;;;;;;;1.97;1.87;;;28.50;99.40;;;;;;5117679;28;20658;-81
2022/09/02 13:37:59;;;;;;;2.63;1.70;;;28.80;99.50;;;;;;5117346;28;20176;-83
2022/09/02 13:40:27;;;;;;;2.40;1.73;;;29.00;99.50;;;;;;5117435;28;20195;-84
2022/09/02 13:43:00;;;;;;;2.07;1.90;;;29.30;97.50;;;;;;5117224;27;20174;-83
2022/09/02 13:45:27;;;;;;;3.80;1.60;;;29.10;97.70;;;;;;5117057;28;20188;-84
2022/09/02 13:47:56;;;;;;;1.83;1.73;;;29.30;97.90;;;;;;5115547;28;20183;-84
2022/09/02 13:50:27;;;;;;;2.13;1.80;;;29.50;95.00;;;;;;5116589;28;20280;-84
2022/09/02 13:52:56;;;;;;;2.93;2.13;;;29.40;97.50;;;;;;5117648;28;20207;-83
2022/09/02 13:55:22;;;;;;;2.90;1.70;;;29.90;98.50;;;;;;5117547;28;20174;-81
2022/09/02 13:58:18;;;;;;;2.77;1.73;;;29.80;98.40;;;;;;5115641;28;20647;-81
2022/09/02 14:00:44;;;;;;;4.27;1.60;;;30.30;97.70;;;;;;5115979;28;20215;-83
2022/09/02 14:03:13;;;;;;;2.17;2.00;;;30.30;94.20;;;;;;5117060;28;20204;-82
2022/09/02 14:05:43;;;;;;;1.80;1.70;;;30.60;94.30;;;;;;5115982;28;20177;-82
2022/09/02 14:08:15;;;;;;;1.80;1.70;;;30.70;92.90;;;;;;5117217;28;20176;-81
2022/09/02 14:10:42;;;;;;;2.40;1.97;;;30.70;92.70;;;;;;5117665;28;20202;-80
2022/09/02 14:13:09;;;;;;;2.17;1.80;;;30.70;96.40;;;;;;5116203;27;20195;-80
2022/09/02 14:15:35;;;;;;;2.00;1.90;;;30.70;94.80;;;;;;5116867;28;20250;-80
2022/09/02 14:18:17;;;;;;;1.90;1.80;;;30.70;93.70;;;;;;5116215;28;20185;-80
2022/09/02 14:21:15;;;;;;;2.57;1.80;;;30.20;92.20;;;;;;5116658;27;20194;-81
2022/09/02 14:23:51;;;;;;;2.20;1.83;;;30.50;91.00;;;;;;5116801;28;20216;-81
2022/09/02 14:26:30;;;;;;;3.50;1.97;;;30.00;93.00;;;;;;5116531;28;20160;-83
2022/09/02 14:28:55;;;;;;;2.23;1.80;;;30.30;92.20;;;;;;5116992;28;20178;-81
2022/09/02 14:31:29;;;;;;;1.90;1.80;;;30.50;91.50;;;;;;5116683;28;20188;-82
2022/09/02 14:33:56;;;;;;;3.13;1.87;;;30.70;94.10;;;;;;5114579;28;20191;-82
2022/09/02 14:36:24;;;;;;;5.80;1.60;;;30.60;92.00;;;;;;5115478;28;20172;-83
2022/09/02 14:38:56;;;;;;;2.30;1.60;;;30.60;92.30;;;;;;5114826;28;20178;-81
2022/09/02 14:41:26;;;;;;;3.37;1.60;;;30.70;93.50;;;;;;5113337;28;20209;-84
2022/09/02 14:44:07;;;;;;;2.17;1.70;;;30.60;90.50;;;;;;5114508;28;20606;-81
2022/09/02 14:46:46;;;;;;;1.67;1.57;;;30.60;92.90;;;;;;5118321;28;20522;-82